createdAt,value
2022-09-25T00:02:52.502Z,19.17
2022-09-25T00:06:02.339Z,20.47
2022-09-25T00:09:09.789Z,19.97
2022-09-25T00:12:13.495Z,20.43
2022-09-25T00:15:16.478Z,21.30
2022-09-25T00:18:42.265Z,20.27
2022-09-25T00:21:44.817Z,20.60
2022-09-25T00:24:48.189Z,19.33
2022-09-25T00:27:54.646Z,19.40
2022-09-25T00:30:57.900Z,17.67
2022-09-25T00:34:03.974Z,17.23
2022-09-25T00:37:07.334Z,16.73
2022-09-25T00:40:11.436Z,16.73
2022-09-25T00:43:15.765Z,17.13
2022-09-25T00:46:23.730Z,17.23
2022-09-25T00:49:28.157Z,16.53
2022-09-25T00:52:32.515Z,16.23
2022-09-25T00:55:39.218Z,16.63
2022-09-25T00:58:43.044Z,16.33
2022-09-25T01:01:46.957Z,16.53
2022-09-25T01:04:52.457Z,15.70
2022-09-25T01:07:58.828Z,16.23
2022-09-25T01:11:02.407Z,17.13
2022-09-25T01:14:08.447Z,15.70
2022-09-25T01:17:18.818Z,16.27
2022-09-25T01:20:24.595Z,17.07
2022-09-25T01:23:46.468Z,16.87
2022-09-25T01:27:20.842Z,15.73
2022-09-25T01:30:25.438Z,16.57
2022-09-25T01:33:35.194Z,16.67
2022-09-25T01:36:43.135Z,18.63
2022-09-25T01:39:51.810Z,17.63
2022-09-25T01:43:01.540Z,17.80
2022-09-25T01:46:13.016Z,18.60
2022-09-25T01:49:25.927Z,17.70
2022-09-25T01:52:33.946Z,16.53
2022-09-25T01:55:41.636Z,17.20
2022-09-25T01:58:50.648Z,16.80
2022-09-25T02:01:57.615Z,16.00
2022-09-25T02:05:05.132Z,16.73
2022-09-25T02:08:14.094Z,18.43
2022-09-25T02:11:17.116Z,18.60
2022-09-25T02:14:21.864Z,18.87
2022-09-25T02:17:50.629Z,17.30
2022-09-25T02:21:00.162Z,15.27
2022-09-25T02:24:11.158Z,15.53
2022-09-25T02:27:15.632Z,14.97
2022-09-25T02:30:18.593Z,14.73
2022-09-25T02:33:23.041Z,13.73
2022-09-25T02:36:26.058Z,14.67
2022-09-25T02:39:31.739Z,13.17
2022-09-25T02:42:46.159Z,12.90
2022-09-25T02:45:57.612Z,13.47
2022-09-25T02:49:09.451Z,12.33
2022-09-25T02:52:15.839Z,13.63
2022-09-25T02:55:25.416Z,12.33
2022-09-25T02:58:31.074Z,12.70
2022-09-25T03:01:37.372Z,12.90
2022-09-25T03:04:43.160Z,12.63
2022-09-25T03:08:03.630Z,12.90
2022-09-25T03:11:07.923Z,11.83
2022-09-25T03:14:11.518Z,12.93
2022-09-25T03:17:16.140Z,12.30
2022-09-25T03:20:20.999Z,11.27
2022-09-25T03:23:24.304Z,10.97
2022-09-25T03:26:28.226Z,12.83
2022-09-25T03:29:31.403Z,10.37
2022-09-25T03:32:34.375Z,10.83
2022-09-25T03:35:38.820Z,10.40
2022-09-25T03:38:42.453Z,11.50
2022-09-25T03:41:45.902Z,11.97
2022-09-25T03:44:48.856Z,12.23
2022-09-25T03:47:51.844Z,12.10
2022-09-25T03:50:56.244Z,11.70
2022-09-25T03:53:59.603Z,13.10
2022-09-25T03:57:02.555Z,12.77
2022-09-25T04:00:06.884Z,13.97
2022-09-25T04:03:09.867Z,14.67
2022-09-25T04:06:18.185Z,13.70
2022-09-25T04:09:21.138Z,15.00
2022-09-25T04:12:24.104Z,14.53
2022-09-25T04:15:27.141Z,14.73
2022-09-25T04:18:31.547Z,15.13
2022-09-25T04:21:35.875Z,15.20
2022-09-25T04:24:51.075Z,14.63
2022-09-25T04:27:55.812Z,15.57
2022-09-25T04:30:59.584Z,16.10
2022-09-25T04:34:03.009Z,15.57
2022-09-25T04:37:07.343Z,16.50
2022-09-25T04:40:11.421Z,16.67
2022-09-25T04:43:14.601Z,16.60
2022-09-25T04:46:22.512Z,16.23
2022-09-25T04:49:25.858Z,15.97
2022-09-25T04:52:31.775Z,16.50
2022-09-25T04:55:34.725Z,15.70
2022-09-25T04:58:37.661Z,15.30
2022-09-25T05:01:40.790Z,17.80
2022-09-25T05:04:43.968Z,16.47
2022-09-25T05:07:54.622Z,16.27
2022-09-25T05:10:57.629Z,16.03
2022-09-25T05:14:01.278Z,16.33
2022-09-25T05:17:04.226Z,16.27
2022-09-25T05:20:08.169Z,16.43
2022-09-25T05:23:13.144Z,18.17
2022-09-25T05:26:16.098Z,16.80
2022-09-25T05:29:19.033Z,17.77
2022-09-25T05:32:22.920Z,15.50
2022-09-25T05:35:28.096Z,16.33
2022-09-25T05:38:34.613Z,16.03
2022-09-25T05:41:37.623Z,15.77
2022-09-25T05:44:41.982Z,15.50
2022-09-25T05:47:45.496Z,16.07
2022-09-25T05:50:52.520Z,17.67
2022-09-25T05:53:57.117Z,16.67
2022-09-25T05:57:00.079Z,16.17
2022-09-25T06:00:04.812Z,16.93
2022-09-25T06:03:07.802Z,18.37
2022-09-25T06:06:10.827Z,16.97
2022-09-25T06:09:15.113Z,18.17
2022-09-25T06:12:18.423Z,17.07
2022-09-25T06:15:23.997Z,17.47
2022-09-25T06:18:27.591Z,16.83
2022-09-25T06:21:30.563Z,18.13
2022-09-25T06:24:34.853Z,16.47
2022-09-25T06:27:37.955Z,17.10
2022-09-25T06:30:41.385Z,18.20
2022-09-25T06:33:46.139Z,18.13
2022-09-25T06:36:49.106Z,17.30
2022-09-25T06:39:53.411Z,19.47
2022-09-25T06:42:57.479Z,18.60
2022-09-25T06:46:03.141Z,18.23
2022-09-25T06:49:06.130Z,18.27
2022-09-25T06:52:09.180Z,19.30
2022-09-25T06:55:13.518Z,17.93
2022-09-25T06:58:18.753Z,19.73
2022-09-25T07:01:21.821Z,19.43
2022-09-25T07:04:26.026Z,19.20
2022-09-25T07:07:29.838Z,21.07
2022-09-25T07:10:34.114Z,21.40
2022-09-25T07:13:37.453Z,19.37
2022-09-25T07:16:40.420Z,21.37
2022-09-25T07:19:43.374Z,22.40
2022-09-25T07:22:46.383Z,20.70
2022-09-25T07:25:51.021Z,21.93
2022-09-25T07:28:56.007Z,20.53
2022-09-25T07:32:00.085Z,20.20
2022-09-25T07:35:03.313Z,20.20
2022-09-25T07:38:06.289Z,18.90
2022-09-25T07:41:13.013Z,19.50
2022-09-25T07:44:37.555Z,17.70
2022-09-25T07:47:38.940Z,17.27
2022-09-25T07:50:42.074Z,13.60
2022-09-25T07:53:45.311Z,9.13
2022-09-25T07:56:49.647Z,6.40
2022-09-25T07:59:52.607Z,5.20
2022-09-25T08:02:59.494Z,4.83
2022-09-25T08:06:04.628Z,4.47
2022-09-25T08:09:10.620Z,3.50
2022-09-25T08:12:15.204Z,3.77
2022-09-25T08:15:18.298Z,3.80
2022-09-25T08:18:21.512Z,3.40
2022-09-25T08:21:24.584Z,4.00
2022-09-25T08:24:27.551Z,3.80
2022-09-25T08:27:32.170Z,5.03
2022-09-25T08:30:35.163Z,5.53
2022-09-25T08:33:38.134Z,5.83
2022-09-25T08:36:41.138Z,6.40
2022-09-25T08:39:44.217Z,6.37
2022-09-25T08:42:52.869Z,6.60
2022-09-25T08:46:16.520Z,7.37
2022-09-25T08:49:25.017Z,6.20
2022-09-25T08:52:28.083Z,7.13
2022-09-25T08:55:48.693Z,6.70
2022-09-25T08:58:57.726Z,7.43
2022-09-25T09:02:02.995Z,6.60
2022-09-25T09:05:15.388Z,6.57
2022-09-25T09:08:25.201Z,5.07
2022-09-25T09:11:34.580Z,5.57
2022-09-25T09:14:44.286Z,5.10
2022-09-25T09:17:47.266Z,4.80
2022-09-25T09:20:53.739Z,5.47
2022-09-25T09:24:06.498Z,5.90
2022-09-25T09:27:27.197Z,5.97
2022-09-25T09:30:36.237Z,5.57
2022-09-25T09:33:49.052Z,6.00
2022-09-25T09:36:59.236Z,6.10
2022-09-25T09:40:16.442Z,6.63
2022-09-25T09:43:31.318Z,7.33
2022-09-25T09:46:45.741Z,7.93
2022-09-25T09:49:53.755Z,7.13
2022-09-25T09:53:01.824Z,8.60
2022-09-25T09:56:10.877Z,8.03
2022-09-25T09:59:17.947Z,7.80
2022-09-25T10:02:37.608Z,7.77
2022-09-25T10:05:44.603Z,8.20
2022-09-25T10:08:47.579Z,8.17
2022-09-25T10:11:58.066Z,8.20
2022-09-25T10:15:05.422Z,8.33
2022-09-25T10:18:10.290Z,7.87
2022-09-25T10:21:16.723Z,8.27
2022-09-25T10:24:58.425Z,7.40
2022-09-25T10:28:01.703Z,7.97
2022-09-25T10:31:08.999Z,7.93
2022-09-25T10:34:24.338Z,7.73
2022-09-25T10:37:34.885Z,7.97
2022-09-25T10:40:39.927Z,8.57
2022-09-25T10:43:53.993Z,8.27
2022-09-25T10:47:15.044Z,8.13
2022-09-25T10:50:22.695Z,8.13
2022-09-25T10:53:29.971Z,7.83
2022-09-25T10:56:38.875Z,7.17
2022-09-25T10:59:48.487Z,7.50
2022-09-25T11:02:54.658Z,6.57
2022-09-25T11:06:02.437Z,6.20
2022-09-25T11:09:10.207Z,6.00
2022-09-25T11:12:19.660Z,6.53
2022-09-25T11:15:25.750Z,6.67
2022-09-25T11:18:41.139Z,6.00
2022-09-25T11:21:59.874Z,5.27
2022-09-25T11:25:11.163Z,5.77
2022-09-25T11:28:21.066Z,6.17
2022-09-25T11:31:30.779Z,5.87
2022-09-25T11:35:09.748Z,5.90
2022-09-25T11:38:45.452Z,6.60
2022-09-25T11:41:53.721Z,6.17
2022-09-25T11:45:03.210Z,6.63
2022-09-25T11:48:13.507Z,5.77
2022-09-25T11:51:24.265Z,5.60
2022-09-25T11:54:36.455Z,5.87
2022-09-25T11:57:49.530Z,4.83
2022-09-25T12:01:02.167Z,4.80
2022-09-25T12:04:30.487Z,4.70
2022-09-25T12:07:52.670Z,4.40
2022-09-25T12:11:05.062Z,4.23
2022-09-25T12:14:16.593Z,5.00
2022-09-25T12:17:33.311Z,4.87
2022-09-25T12:20:53.622Z,4.20
2022-09-25T12:24:02.433Z,4.40
2022-09-25T12:27:13.711Z,4.07
2022-09-25T12:30:20.037Z,4.40
2022-09-25T12:33:32.573Z,4.20
2022-09-25T12:36:42.041Z,5.40
2022-09-25T12:39:50.875Z,4.40
2022-09-25T12:42:59.931Z,5.13
2022-09-25T12:46:10.546Z,4.93
2022-09-25T12:49:17.004Z,4.60
2022-09-25T12:52:26.945Z,4.83
2022-09-25T12:55:34.120Z,4.53
2022-09-25T12:58:59.524Z,4.10
2022-09-25T13:02:12.149Z,4.33
2022-09-25T13:05:22.353Z,3.83
2022-09-25T13:08:33.817Z,4.10
2022-09-25T13:11:45.329Z,3.40
2022-09-25T13:14:54.143Z,3.83
2022-09-25T13:17:59.056Z,3.97
2022-09-25T13:21:24.171Z,3.50
2022-09-25T13:24:27.231Z,3.10
2022-09-25T13:27:40.833Z,3.30
2022-09-25T13:31:08.652Z,2.70
2022-09-25T13:34:14.751Z,2.90
2022-09-25T13:37:18.039Z,2.70
2022-09-25T13:40:40.577Z,3.00
2022-09-25T13:43:44.216Z,2.63
2022-09-25T13:46:48.524Z,2.70
2022-09-25T13:49:52.756Z,2.67
2022-09-25T13:53:27.824Z,2.73
2022-09-25T13:56:48.256Z,2.20
2022-09-25T14:00:03.200Z,2.20
2022-09-25T14:03:31.792Z,2.10
2022-09-25T14:06:39.247Z,2.27
2022-09-25T14:09:48.372Z,2.30
2022-09-25T14:12:53.017Z,2.13
2022-09-25T14:15:59.884Z,2.20
2022-09-25T14:19:05.724Z,2.50
2022-09-25T14:22:14.242Z,2.00
2022-09-25T14:25:32.866Z,2.57
2022-09-25T14:28:44.969Z,2.20
2022-09-25T14:32:01.321Z,2.10
2022-09-25T14:35:25.161Z,1.90
2022-09-25T14:38:55.769Z,2.10
2022-09-25T14:42:23.461Z,2.00
2022-09-25T14:45:56.069Z,2.27
2022-09-25T14:49:03.399Z,2.00
2022-09-25T14:52:11.856Z,2.30
2022-09-25T14:55:21.272Z,2.20
2022-09-25T14:58:28.435Z,2.20
2022-09-25T15:01:33.228Z,1.60
2022-09-25T15:04:36.255Z,1.83
2022-09-25T15:07:44.125Z,1.43
2022-09-25T15:10:47.092Z,1.40
2022-09-25T15:13:50.044Z,1.60
2022-09-25T15:17:11.097Z,1.60
2022-09-25T15:20:19.435Z,1.80
2022-09-25T15:23:24.085Z,1.50
2022-09-25T15:26:28.185Z,1.47
2022-09-25T15:29:34.397Z,1.17
2022-09-25T15:32:40.349Z,1.40
2022-09-25T15:35:43.342Z,1.50
2022-09-25T15:38:53.925Z,1.20
2022-09-25T15:41:57.600Z,1.47
2022-09-25T15:45:09.999Z,1.30
2022-09-25T15:48:21.776Z,1.43
2022-09-25T15:51:28.081Z,2.07
2022-09-25T15:54:35.969Z,1.50
2022-09-25T15:57:39.126Z,1.10
2022-09-25T16:01:14.347Z,1.33
2022-09-25T16:04:46.923Z,1.10
2022-09-25T16:07:50.440Z,1.40
2022-09-25T16:11:06.513Z,1.03
2022-09-25T16:14:30.184Z,1.53
2022-09-25T16:17:36.187Z,1.00
2022-09-25T16:20:41.261Z,0.97
2022-09-25T16:23:45.194Z,1.00
2022-09-25T16:26:55.092Z,1.20
2022-09-25T16:30:03.723Z,1.10
2022-09-25T16:33:17.095Z,1.20
2022-09-25T16:36:20.415Z,1.10
2022-09-25T16:39:29.275Z,0.90
2022-09-25T16:42:40.056Z,1.30
2022-09-25T16:45:58.951Z,1.00
2022-09-25T16:49:04.759Z,1.07
2022-09-25T16:52:08.885Z,0.97
2022-09-25T16:55:23.077Z,1.30
2022-09-25T16:58:27.716Z,1.13
2022-09-25T17:01:30.990Z,1.13
2022-09-25T17:04:35.870Z,1.07
2022-09-25T17:07:38.863Z,1.10
2022-09-25T17:10:42.272Z,1.10
2022-09-25T17:13:47.327Z,1.30
2022-09-25T17:16:50.624Z,1.30
2022-09-25T17:19:53.568Z,1.60
2022-09-25T17:22:56.553Z,1.80
2022-09-25T17:26:02.810Z,1.33
2022-09-25T17:29:07.271Z,1.93
2022-09-25T17:32:14.235Z,1.27
2022-09-25T17:35:32.311Z,1.50
2022-09-25T17:38:35.363Z,1.60
2022-09-25T17:41:38.683Z,1.50
2022-09-25T17:44:43.811Z,1.47
2022-09-25T17:47:46.834Z,1.40
2022-09-25T17:50:50.083Z,1.33
2022-09-25T17:53:53.854Z,1.17
2022-09-25T17:56:57.044Z,1.97
2022-09-25T18:00:01.430Z,1.93
2022-09-25T18:03:04.642Z,2.13
2022-09-25T18:06:07.765Z,1.60
2022-09-25T18:09:10.779Z,1.60
2022-09-25T18:12:13.834Z,2.20
2022-09-25T18:15:18.197Z,2.10
2022-09-25T18:18:21.983Z,2.20
2022-09-25T18:21:42.717Z,2.20
2022-09-25T18:24:46.019Z,1.87
2022-09-25T18:27:49.036Z,2.17
2022-09-25T18:30:53.382Z,2.27
2022-09-25T18:33:56.384Z,2.20
2022-09-25T18:36:59.375Z,1.77
2022-09-25T18:40:02.822Z,2.10
2022-09-25T18:43:05.803Z,1.63
2022-09-25T18:46:10.747Z,2.07
2022-09-25T18:49:13.975Z,1.87
2022-09-25T18:52:17.238Z,1.93
2022-09-25T18:55:20.196Z,2.07
2022-09-25T18:58:23.144Z,1.80
2022-09-25T19:01:27.647Z,2.13
2022-09-25T19:04:30.751Z,2.33
2022-09-25T19:07:33.834Z,1.67
2022-09-25T19:10:36.788Z,1.93
2022-09-25T19:13:40.056Z,2.30
2022-09-25T19:16:44.885Z,2.30
2022-09-25T19:19:47.948Z,2.23
2022-09-25T19:22:50.949Z,2.00
2022-09-25T19:25:55.284Z,2.40
2022-09-25T19:28:58.233Z,2.53
2022-09-25T19:32:03.713Z,2.63
2022-09-25T19:35:07.189Z,2.33
2022-09-25T19:38:12.749Z,2.43
2022-09-25T19:41:17.964Z,2.20
2022-09-25T19:44:20.975Z,2.60
2022-09-25T19:47:25.262Z,2.63
2022-09-25T19:50:28.373Z,2.57
2022-09-25T19:53:31.315Z,2.90
2022-09-25T19:56:34.272Z,2.63
2022-09-25T19:59:37.242Z,2.93
2022-09-25T20:02:45.849Z,2.47
2022-09-25T20:05:49.528Z,3.00
2022-09-25T20:08:57.874Z,3.10
2022-09-25T20:12:00.827Z,3.10
2022-09-25T20:15:03.976Z,3.20
2022-09-25T20:18:08.423Z,3.10
2022-09-25T20:21:13.832Z,2.70
2022-09-25T20:24:18.072Z,3.00
2022-09-25T20:27:23.231Z,2.50
2022-09-25T20:30:29.097Z,2.43
2022-09-25T20:33:35.526Z,2.60
2022-09-25T20:36:39.105Z,2.43
2022-09-25T20:39:42.139Z,2.47
2022-09-25T20:42:45.165Z,2.80
2022-09-25T20:45:57.058Z,2.40
2022-09-25T20:49:03.495Z,2.13
2022-09-25T20:52:06.568Z,2.33
2022-09-25T20:55:10.621Z,2.87
2022-09-25T20:58:13.703Z,2.07
2022-09-25T21:01:18.885Z,2.00
2022-09-25T21:04:23.340Z,2.23
2022-09-25T21:07:26.429Z,2.20
2022-09-25T21:10:29.370Z,2.40
2022-09-25T21:13:34.226Z,2.20
2022-09-25T21:16:37.215Z,2.57
2022-09-25T21:19:41.528Z,2.30
2022-09-25T21:22:44.510Z,2.60
2022-09-25T21:25:47.578Z,2.23
2022-09-25T21:28:52.224Z,2.20
2022-09-25T21:31:55.311Z,2.37
2022-09-25T21:34:59.652Z,2.30
2022-09-25T21:38:03.845Z,2.37
2022-09-25T21:41:09.022Z,2.53
2022-09-25T21:44:14.082Z,2.67
2022-09-25T21:47:17.872Z,2.07
2022-09-25T21:50:22.147Z,1.97
2022-09-25T21:53:26.388Z,2.30
2022-09-25T21:56:31.421Z,2.10
2022-09-25T21:59:34.744Z,1.80
2022-09-25T22:02:38.713Z,2.00
2022-09-25T22:05:43.046Z,2.17
2022-09-25T22:08:48.660Z,1.90
2022-09-25T22:11:52.217Z,1.90
2022-09-25T22:14:55.175Z,1.67
2022-09-25T22:17:58.130Z,2.07
2022-09-25T22:21:02.412Z,1.90
2022-09-25T22:24:06.395Z,1.43
2022-09-25T22:27:10.419Z,1.77
2022-09-25T22:30:13.599Z,1.67
2022-09-25T22:33:16.603Z,1.80
2022-09-25T22:36:20.927Z,2.10
2022-09-25T22:39:23.899Z,2.33
2022-09-25T22:42:26.950Z,2.00
2022-09-25T22:45:30.132Z,2.37
2022-09-25T22:48:33.622Z,2.00
2022-09-25T22:51:38.051Z,2.30
2022-09-25T22:54:41.048Z,2.40
2022-09-25T22:57:44.023Z,2.30
2022-09-25T23:00:49.374Z,2.10
2022-09-25T23:03:55.383Z,1.70
2022-09-25T23:06:59.675Z,2.53
2022-09-25T23:10:02.659Z,2.40
2022-09-25T23:13:06.640Z,2.40
2022-09-25T23:16:09.872Z,2.33
2022-09-25T23:19:13.156Z,2.10
2022-09-25T23:22:17.467Z,2.23
2022-09-25T23:25:20.460Z,1.90
2022-09-25T23:28:23.415Z,2.40
2022-09-25T23:31:27.388Z,2.10
2022-09-25T23:34:30.377Z,2.00
2022-09-25T23:37:34.943Z,2.30
2022-09-25T23:40:38.490Z,1.83
2022-09-25T23:43:41.544Z,2.00
2022-09-25T23:46:45.170Z,1.73
2022-09-25T23:49:48.144Z,2.10
2022-09-25T23:52:52.483Z,1.70
2022-09-25T23:55:55.469Z,1.90
2022-09-25T23:59:01.022Z,1.77
